createdAt,value
2018-08-20T00:01:45.423Z,14.80
2018-08-20T00:06:52.858Z,24.20
2018-08-20T00:11:51.188Z,18.67
2018-08-20T00:16:48.715Z,24.27
2018-08-20T00:21:46.082Z,16.90
2018-08-20T00:26:43.450Z,23.60
2018-08-20T00:31:40.819Z,19.33
2018-08-20T00:36:38.191Z,18.57
2018-08-20T00:41:35.551Z,17.60
2018-08-20T00:46:32.915Z,18.80
2018-08-20T00:51:30.297Z,16.33
2018-08-20T00:56:27.675Z,18.70
2018-08-20T01:01:25.087Z,18.23
2018-08-20T01:06:22.476Z,16.97
2018-08-20T01:11:19.849Z,25.90
2018-08-20T01:16:17.216Z,16.80
2018-08-20T01:21:14.611Z,17.67
2018-08-20T01:26:11.980Z,22.20
2018-08-20T01:31:09.438Z,26.47
2018-08-20T01:36:06.859Z,18.47
2018-08-20T01:41:04.691Z,19.00
2018-08-20T01:46:02.100Z,22.43
2018-08-20T01:50:59.459Z,16.00
2018-08-20T01:55:56.843Z,22.23
2018-08-20T02:00:54.209Z,25.43
2018-08-20T02:05:51.963Z,22.70
2018-08-20T02:10:49.398Z,14.50
2018-08-20T02:15:47.053Z,21.47
2018-08-20T02:20:44.451Z,22.03
2018-08-20T02:25:41.806Z,19.63
2018-08-20T02:30:39.194Z,14.73
2018-08-20T02:35:36.568Z,28.40
2018-08-20T02:40:33.934Z,17.13
2018-08-20T02:45:31.331Z,15.43
2018-08-20T02:50:28.705Z,32.07
2018-08-20T02:55:26.102Z,23.23
2018-08-20T03:00:23.483Z,30.43
2018-08-20T03:05:20.882Z,22.10
2018-08-20T03:10:18.278Z,22.70
2018-08-20T03:15:15.667Z,19.13
2018-08-20T03:20:13.731Z,22.83
2018-08-20T03:25:11.174Z,20.47
2018-08-20T03:30:09.295Z,22.17
2018-08-20T03:35:07.970Z,27.17
2018-08-20T03:40:07.787Z,14.13
2018-08-20T03:45:06.308Z,22.10
2018-08-20T03:50:07.003Z,18.67
2018-08-20T03:55:04.499Z,23.83
2018-08-20T04:00:01.914Z,14.50
2018-08-20T04:04:59.363Z,18.43
2018-08-20T04:09:56.830Z,19.10
2018-08-20T04:14:54.248Z,16.33
2018-08-20T04:19:52.734Z,20.23
2018-08-20T04:24:50.138Z,20.23
2018-08-20T04:29:47.548Z,21.77
2018-08-20T04:34:44.955Z,20.50
2018-08-20T04:39:42.369Z,24.17
2018-08-20T04:44:39.773Z,20.40
2018-08-20T04:49:41.146Z,23.10
2018-08-20T04:54:38.631Z,21.87
2018-08-20T04:59:36.023Z,25.63
2018-08-20T05:04:33.521Z,22.63
2018-08-20T05:09:30.926Z,23.73
2018-08-20T05:14:28.319Z,21.30
2018-08-20T05:19:36.995Z,37.37
2018-08-20T05:24:34.531Z,17.20
2018-08-20T05:29:32.014Z,30.10
2018-08-20T05:34:29.391Z,23.30
2018-08-20T05:39:26.803Z,31.63
2018-08-20T05:44:24.187Z,24.50
2018-08-20T05:49:30.402Z,27.30
2018-08-20T05:54:27.952Z,36.73
2018-08-20T05:59:25.373Z,20.80
2018-08-20T06:04:22.793Z,20.70
2018-08-20T06:09:20.263Z,26.10
2018-08-20T06:14:17.695Z,25.87
2018-08-20T06:19:28.277Z,23.63
2018-08-20T06:24:25.774Z,22.93
2018-08-20T06:29:23.248Z,25.43
2018-08-20T06:34:21.491Z,25.70
2018-08-20T06:39:18.928Z,31.13
2018-08-20T06:44:16.340Z,34.00
2018-08-20T06:49:13.825Z,23.37
2018-08-20T06:54:11.283Z,26.07
2018-08-20T06:59:08.694Z,59.07
2018-08-20T07:04:06.498Z,28.47
2018-08-20T07:09:05.240Z,34.20
2018-08-20T07:14:02.667Z,35.50
2018-08-20T07:19:03.475Z,30.57
2018-08-20T07:24:00.972Z,26.50
2018-08-20T07:28:58.439Z,32.40
2018-08-20T07:33:55.872Z,30.73
2018-08-20T07:38:53.304Z,35.47
2018-08-20T07:43:50.729Z,31.03
2018-08-20T07:48:48.130Z,32.67
2018-08-20T07:53:45.597Z,33.87
2018-08-20T07:58:43.006Z,33.80
2018-08-20T08:03:41.914Z,33.63
2018-08-20T08:08:40.419Z,32.93
2018-08-20T08:13:37.835Z,41.57
2018-08-20T08:18:35.273Z,32.07
2018-08-20T08:23:32.680Z,24.33
2018-08-20T08:28:30.115Z,30.67
2018-08-20T08:33:27.520Z,27.07
2018-08-20T08:38:24.954Z,29.33
2018-08-20T08:43:22.379Z,23.20
2018-08-20T08:48:19.814Z,25.30
2018-08-20T08:53:17.206Z,29.43
2018-08-20T08:58:14.602Z,36.27
2018-08-20T09:03:12.026Z,27.23
2018-08-20T09:08:09.456Z,35.60
2018-08-20T09:13:06.907Z,25.30
2018-08-20T09:18:04.864Z,28.37
2018-08-20T09:23:02.271Z,37.97
2018-08-20T09:27:59.699Z,28.03
2018-08-20T09:32:57.260Z,22.50
2018-08-20T09:37:54.656Z,26.47
2018-08-20T09:42:52.064Z,32.13
2018-08-20T09:47:49.455Z,27.10
2018-08-20T09:52:46.871Z,35.07
2018-08-20T09:57:44.288Z,29.93
2018-08-20T10:02:41.677Z,31.27
2018-08-20T10:07:39.095Z,25.80
2018-08-20T10:12:36.483Z,36.50
2018-08-20T10:17:33.887Z,31.17
2018-08-20T10:22:31.297Z,28.53
2018-08-20T10:27:28.839Z,35.17
2018-08-20T10:32:26.212Z,24.60
2018-08-20T10:37:23.622Z,35.60
2018-08-20T10:42:21.023Z,24.40
2018-08-20T10:47:18.754Z,37.23
2018-08-20T10:52:16.179Z,31.17
2018-08-20T10:57:13.609Z,33.33
2018-08-20T11:02:11.112Z,32.57
2018-08-20T11:07:08.604Z,26.00
2018-08-20T11:12:06.122Z,29.17
2018-08-20T11:17:03.602Z,37.60
2018-08-20T11:22:01.035Z,30.97
2018-08-20T11:26:58.806Z,22.90
2018-08-20T11:31:56.206Z,23.00
2018-08-20T11:36:53.784Z,21.07
2018-08-20T11:41:51.249Z,25.47
2018-08-20T11:46:48.672Z,29.83
2018-08-20T11:51:46.083Z,25.53
2018-08-20T11:56:43.479Z,24.90
2018-08-20T12:01:41.168Z,27.70
2018-08-20T12:06:38.552Z,26.70
2018-08-20T12:11:36.003Z,27.37
2018-08-20T12:16:33.479Z,23.63
2018-08-20T12:21:32.774Z,23.83
2018-08-20T12:26:30.205Z,25.00
2018-08-20T12:31:29.853Z,25.57
2018-08-20T12:36:27.404Z,20.80
2018-08-20T12:41:24.886Z,21.43
2018-08-20T12:46:22.408Z,17.40
2018-08-20T12:51:20.771Z,20.33
2018-08-20T12:56:18.276Z,18.63
2018-08-20T13:01:15.775Z,27.17
2018-08-20T13:06:13.187Z,26.53
2018-08-20T13:11:10.668Z,20.10
2018-08-20T13:16:08.218Z,21.70
2018-08-20T13:21:05.795Z,20.17
2018-08-20T13:26:04.598Z,21.10
2018-08-20T13:31:02.593Z,37.43
2018-08-20T13:35:59.961Z,19.53
2018-08-20T13:40:57.910Z,15.67
2018-08-20T13:45:55.343Z,16.93
2018-08-20T13:50:53.830Z,12.43
2018-08-20T13:55:51.267Z,13.83
2018-08-20T14:00:48.789Z,19.60
2018-08-20T14:05:46.311Z,17.90
2018-08-20T14:10:43.712Z,18.60
2018-08-20T14:15:41.263Z,17.83
2018-08-20T14:20:42.342Z,18.93
2018-08-20T14:25:39.781Z,17.83
2018-08-20T14:30:37.288Z,17.23
2018-08-20T14:35:34.616Z,18.70
2018-08-20T14:40:32.045Z,27.87
2018-08-20T14:45:35.103Z,23.20
2018-08-20T14:50:32.526Z,13.33
2018-08-20T14:55:31.626Z,10.13
2018-08-20T15:00:29.037Z,9.57
2018-08-20T15:05:26.459Z,10.90
2018-08-20T15:10:23.863Z,15.90
2018-08-20T15:15:21.388Z,12.03
2018-08-20T15:20:19.135Z,9.90
2018-08-20T15:25:16.803Z,14.60
2018-08-20T15:30:14.239Z,9.77
2018-08-20T15:35:11.653Z,6.90
2018-08-20T15:40:10.787Z,10.13
2018-08-20T15:45:08.236Z,10.00
2018-08-20T15:50:06.745Z,7.97
2018-08-20T15:55:04.407Z,6.10
2018-08-20T16:00:01.852Z,4.67
2018-08-20T16:04:59.242Z,8.33
2018-08-20T16:09:56.655Z,3.87
2018-08-20T16:14:55.430Z,3.37
2018-08-20T16:19:56.927Z,3.23
2018-08-20T16:24:54.323Z,3.57
2018-08-20T16:29:52.539Z,2.30
2018-08-20T16:34:51.970Z,4.60
2018-08-20T16:39:51.096Z,2.73
2018-08-20T16:44:49.130Z,2.30
2018-08-20T16:49:59.889Z,1.73
2018-08-20T16:54:58.818Z,1.50
2018-08-20T16:59:56.475Z,3.90
2018-08-20T17:04:56.250Z,1.20
2018-08-20T17:15:00.995Z,1.90
2018-08-20T17:20:05.055Z,2.30
2018-08-20T17:25:04.118Z,1.37
2018-08-20T17:30:05.388Z,1.30
2018-08-20T17:35:02.959Z,2.00
2018-08-20T17:40:04.834Z,2.60
2018-08-20T17:45:02.736Z,1.90
2018-08-20T17:50:01.593Z,2.93
2018-08-20T17:55:00.956Z,2.20
2018-08-20T18:00:40.247Z,2.53
2018-08-20T18:05:37.730Z,1.83
2018-08-20T18:10:35.131Z,0.93
2018-08-20T18:15:32.531Z,1.53
2018-08-20T18:20:34.442Z,1.00
2018-08-20T18:25:36.351Z,2.60
2018-08-20T18:30:33.773Z,0.80
2018-08-20T18:35:36.214Z,2.13
2018-08-20T18:40:33.644Z,1.20
2018-08-20T18:45:31.023Z,6.57
2018-08-20T18:50:28.449Z,1.17
2018-08-20T18:55:25.967Z,1.80
2018-08-20T19:00:23.374Z,0.80
2018-08-20T19:05:21.623Z,2.20
2018-08-20T19:10:21.619Z,4.17
2018-08-20T19:15:30.700Z,6.00
2018-08-20T19:20:28.250Z,1.23
2018-08-20T19:25:25.699Z,2.40
2018-08-20T19:30:24.562Z,3.97
2018-08-20T19:35:21.974Z,1.47
2018-08-20T19:40:19.522Z,6.07
2018-08-20T19:45:16.927Z,1.33
2018-08-20T19:50:15.740Z,1.23
2018-08-20T19:55:13.383Z,2.10
2018-08-20T20:00:12.584Z,1.40
2018-08-20T20:05:12.567Z,2.93
2018-08-20T20:10:12.531Z,11.87
2018-08-20T20:15:11.039Z,1.70
2018-08-20T20:20:09.510Z,1.00
2018-08-20T20:25:06.922Z,1.43
2018-08-20T20:30:05.775Z,2.10
2018-08-20T20:35:03.448Z,2.60
2018-08-20T20:40:01.867Z,1.60
2018-08-20T20:44:59.291Z,7.37
2018-08-20T20:49:57.775Z,1.83
2018-08-20T20:54:55.263Z,1.40
2018-08-20T20:59:52.610Z,1.00
2018-08-20T21:04:49.974Z,21.40
2018-08-20T21:09:47.413Z,1.67
2018-08-20T21:14:44.863Z,3.80
2018-08-20T21:19:50.058Z,1.30
2018-08-20T21:24:47.504Z,2.73
2018-08-20T21:29:44.875Z,1.43
2018-08-20T21:34:42.269Z,2.10
2018-08-20T21:39:39.875Z,1.30
2018-08-20T21:44:37.287Z,2.90
2018-08-20T21:49:41.270Z,1.80
2018-08-20T21:54:39.387Z,2.70
2018-08-20T21:59:36.759Z,2.23
2018-08-20T22:04:34.180Z,1.70
2018-08-20T22:09:31.609Z,0.90
2018-08-20T22:14:29.037Z,1.60
2018-08-20T22:19:34.644Z,3.93
2018-08-20T22:24:32.106Z,2.00
2018-08-20T22:29:48.798Z,6.07
2018-08-20T22:34:46.249Z,1.43
2018-08-20T22:39:49.871Z,1.33
2018-08-20T22:44:47.255Z,1.17
2018-08-20T22:49:47.188Z,2.77
2018-08-20T22:54:44.739Z,2.40
2018-08-20T22:59:42.123Z,1.27
2018-08-20T23:04:40.102Z,6.90
2018-08-20T23:09:37.515Z,2.70
2018-08-20T23:14:34.918Z,1.53
2018-08-20T23:19:34.146Z,4.83
2018-08-20T23:24:31.592Z,1.17
2018-08-20T23:29:28.962Z,3.10
2018-08-20T23:34:26.319Z,2.47
2018-08-20T23:39:23.727Z,4.00
2018-08-20T23:44:21.107Z,2.70
2018-08-20T23:49:28.565Z,9.23
2018-08-20T23:54:26.000Z,1.73
2018-08-20T23:59:23.390Z,4.43
